Time;durP1;ratioP1;P1;durP2;ratioP2;P2;SDS_P1;SDS_P2;PMS_P1;PMS_P2;Temp;Humidity;BMP_temperature;BMP_pressure;BME280_temperature;BME280_humidity;BME280_pressure;Samples;Min_cycle;Max_cycle;Signal;HPM_P1;HPM_P2
2021/11/07 00:04:47;;;;;;;21.73;7.35;;;12.90;99.90;;;;;;5140751;27;38039;-76
2021/11/07 00:07:21;;;;;;;19.60;7.15;;;12.90;99.90;;;;;;5136648;27;38983;-76
2021/11/07 00:09:59;;;;;;;25.42;8.10;;;12.90;99.90;;;;;;5136094;27;38405;-76
2021/11/07 00:12:29;;;;;;;26.58;7.07;;;12.90;99.90;;;;;;5137151;27;36426;-76
2021/11/07 00:14:56;;;;;;;23.52;6.00;;;12.90;99.90;;;;;;5144583;27;39697;-76
2021/11/07 00:17:27;;;;;;;21.60;5.80;;;12.90;99.90;;;;;;5140016;27;39894;-76
2021/11/07 00:20:06;;;;;;;34.30;7.03;;;13.00;99.90;;;;;;5134547;27;37296;-76
2021/11/07 00:22:47;;;;;;;24.75;5.50;;;13.00;99.90;;;;;;5140807;27;49062;-76
2021/11/07 00:25:31;;;;;;;27.90;5.78;;;13.00;99.90;;;;;;5133085;27;38688;-77
2021/11/07 00:28:01;;;;;;;23.17;4.63;;;13.00;99.90;;;;;;5134805;27;38328;-75
2021/11/07 00:37:56;;;;;;;20.35;4.43;;;13.10;99.90;;;;;;5144029;27;37548;-75
2021/11/07 00:40:32;;;;;;;29.17;4.95;;;13.10;99.90;;;;;;5146772;27;37875;-75
2021/11/07 00:48:11;;;;;;;33.13;5.57;;;13.20;99.90;;;;;;5141212;27;39933;-76
2021/11/07 00:50:53;;;;;;;28.38;4.95;;;13.20;99.90;;;;;;5139042;27;47607;-75
2021/11/07 00:55:51;;;;;;;25.70;5.18;;;13.30;99.90;;;;;;5137022;27;39433;-75
2021/11/07 00:58:21;;;;;;;29.27;4.47;;;13.30;99.90;;;;;;5140972;27;38510;-75
2021/11/07 01:01:30;;;;;;;28.50;5.07;;;13.30;99.90;;;;;;5120214;27;36815;-76
2021/11/07 01:03:36;;;;;;;27.08;4.57;;;13.30;99.90;;;;;;5135669;27;48596;-76
2021/11/07 01:06:04;;;;;;;30.42;4.97;;;13.30;99.90;;;;;;5127738;27;39263;-76
2021/11/07 01:08:30;;;;;;;27.00;4.82;;;13.30;99.90;;;;;;5139925;27;38093;-76
2021/11/07 01:11:00;;;;;;;30.30;4.88;;;13.30;99.90;;;;;;5156641;27;37776;-75
2021/11/07 01:13:27;;;;;;;27.38;5.07;;;13.40;99.90;;;;;;5135686;27;38306;-76
2021/11/07 01:15:54;;;;;;;19.90;5.35;;;13.40;99.90;;;;;;5155416;27;39779;-76
2021/11/07 01:18:21;;;;;;;26.33;5.68;;;13.30;99.90;;;;;;5132421;27;37131;-76
2021/11/07 01:20:48;;;;;;;22.98;4.88;;;13.40;99.90;;;;;;5132741;27;39013;-75
2021/11/07 01:23:22;;;;;;;23.33;4.03;;;13.30;99.90;;;;;;5151977;27;37453;-75
2021/11/07 01:25:53;;;;;;;25.10;4.80;;;13.30;99.90;;;;;;5137941;27;39528;-75
2021/11/07 01:28:20;;;;;;;31.27;5.28;;;13.40;99.90;;;;;;5152932;27;37123;-75
2021/11/07 01:30:53;;;;;;;29.42;5.07;;;13.40;99.90;;;;;;5135760;27;38040;-76
2021/11/07 01:33:23;;;;;;;29.33;5.35;;;13.30;99.90;;;;;;5164670;27;37989;-76
2021/11/07 01:36:02;;;;;;;32.40;6.03;;;13.30;99.90;;;;;;5135366;27;38878;-74
2021/11/07 01:38:42;;;;;;;34.40;5.38;;;13.30;99.90;;;;;;5161477;27;47179;-76
2021/11/07 01:43:42;;;;;;;30.50;5.45;;;13.30;99.90;;;;;;5161497;27;36317;-76
2021/11/07 01:46:45;;;;;;;37.50;5.97;;;13.40;99.90;;;;;;5137558;27;39526;-76
2021/11/07 01:49:22;;;;;;;30.17;5.35;;;13.30;99.90;;;;;;5161141;27;38412;-75
2021/11/07 01:51:53;;;;;;;21.52;4.90;;;13.40;99.90;;;;;;5138979;27;47426;-75
2021/11/07 01:54:26;;;;;;;29.83;6.55;;;13.40;99.90;;;;;;5138613;27;37528;-75
2021/11/07 01:56:52;;;;;;;21.17;6.07;;;13.40;99.90;;;;;;5138475;27;37843;-76
2021/11/07 01:59:19;;;;;;;29.35;6.15;;;13.40;99.90;;;;;;5135273;27;37223;-75
2021/11/07 02:01:59;;;;;;;25.83;6.75;;;13.50;99.90;;;;;;5150780;27;38424;-75
2021/11/07 02:04:25;;;;;;;25.00;6.78;;;13.50;99.90;;;;;;5153745;27;38022;-76
2021/11/07 02:06:51;;;;;;;33.92;7.10;;;13.50;99.90;;;;;;5157258;27;39885;-76
2021/11/07 02:09:17;;;;;;;28.30;7.03;;;13.60;99.90;;;;;;5134585;27;38740;-75
2021/11/07 02:11:44;;;;;;;27.27;7.05;;;13.60;99.90;;;;;;5135160;27;37419;-76
2021/11/07 02:14:10;;;;;;;25.80;7.40;;;13.60;99.90;;;;;;5159320;27;37540;-76
2021/11/07 02:16:36;;;;;;;23.55;6.32;;;13.60;99.90;;;;;;5136194;27;38451;-76
2021/11/07 02:19:03;;;;;;;30.00;7.18;;;13.60;99.90;;;;;;5135847;27;37251;-76
2021/11/07 02:21:29;;;;;;;21.23;6.65;;;13.60;99.90;;;;;;5133003;27;38363;-76
2021/11/07 02:23:56;;;;;;;22.17;6.68;;;13.60;99.90;;;;;;5152561;27;36090;-76
2021/11/07 02:26:22;;;;;;;25.67;6.43;;;13.70;99.90;;;;;;5152206;27;38806;-76
2021/11/07 02:28:48;;;;;;;29.85;6.40;;;13.70;99.90;;;;;;5153408;27;38124;-76
2021/11/07 02:31:17;;;;;;;29.23;6.85;;;13.70;99.90;;;;;;5131307;27;36992;-76
2021/11/07 02:33:45;;;;;;;20.23;6.53;;;13.80;99.90;;;;;;5115297;27;36989;-75
2021/11/07 02:36:19;;;;;;;23.63;6.53;;;13.70;99.90;;;;;;5121597;27;37817;-75
2021/11/07 02:38:48;;;;;;;30.90;7.35;;;13.80;99.90;;;;;;5138535;27;39136;-76
2021/11/07 02:41:15;;;;;;;19.85;6.72;;;13.70;99.90;;;;;;5133575;27;37246;-76
2021/11/07 02:43:47;;;;;;;25.52;6.50;;;13.70;99.90;;;;;;5133802;27;36384;-76
2021/11/07 02:46:17;;;;;;;28.30;7.13;;;13.70;99.90;;;;;;5155643;27;39289;-76
2021/11/07 02:48:50;;;;;;;27.42;6.90;;;13.70;99.90;;;;;;5156748;27;39040;-76
2021/11/07 02:51:22;;;;;;;27.08;7.13;;;13.70;99.90;;;;;;5156261;27;36221;-76
2021/11/07 02:53:48;;;;;;;29.10;7.05;;;13.70;99.90;;;;;;5141903;27;34688;-76
2021/11/07 02:56:15;;;;;;;19.25;6.85;;;13.80;99.90;;;;;;5137759;27;37925;-75
2021/11/07 02:58:41;;;;;;;21.60;6.40;;;13.80;99.90;;;;;;5131688;27;38365;-76
2021/11/07 03:01:07;;;;;;;27.50;6.95;;;13.70;99.90;;;;;;5136039;27;37115;-76
2021/11/07 03:03:34;;;;;;;19.00;6.45;;;13.80;99.90;;;;;;5163336;27;37945;-76
2021/11/07 03:06:03;;;;;;;23.77;6.28;;;13.90;99.90;;;;;;5141859;27;39286;-75
2021/11/07 03:08:30;;;;;;;25.05;6.63;;;13.90;99.90;;;;;;5163052;27;48918;-76
2021/11/07 03:10:58;;;;;;;19.20;5.80;;;13.90;99.90;;;;;;5164480;27;37991;-75
2021/11/07 03:13:24;;;;;;;33.35;6.85;;;13.90;99.90;;;;;;5164848;27;37874;-73
2021/11/07 03:15:51;;;;;;;25.58;5.47;;;13.90;99.90;;;;;;5146427;27;39643;-75
2021/11/07 03:18:18;;;;;;;23.92;6.95;;;13.90;99.90;;;;;;5148446;27;38378;-76
2021/11/07 03:20:45;;;;;;;26.92;5.88;;;13.90;99.90;;;;;;5126916;27;37503;-74
2021/11/07 03:23:18;;;;;;;14.95;4.57;;;13.70;99.90;;;;;;5130413;27;36269;-75
2021/11/07 03:25:48;;;;;;;13.25;3.45;;;13.60;99.90;;;;;;5116785;27;40803;-76
2021/11/07 03:28:15;;;;;;;14.45;4.00;;;13.70;99.90;;;;;;5120288;27;37553;-76
2021/11/07 03:33:29;;;;;;;17.67;4.18;;;13.40;99.90;;;;;;5150794;27;37824;-75
2021/11/07 03:35:57;;;;;;;18.38;4.40;;;13.30;99.90;;;;;;5139606;27;39025;-75
2021/11/07 03:38:23;;;;;;;15.27;3.42;;;13.20;99.90;;;;;;5142610;27;37455;-76
2021/11/07 03:40:50;;;;;;;17.20;3.58;;;13.20;99.90;;;;;;5141187;27;38662;-75
2021/11/07 03:43:17;;;;;;;24.13;3.83;;;13.10;99.90;;;;;;5138906;27;36188;-75
2021/11/07 03:45:43;;;;;;;21.42;3.80;;;13.00;99.90;;;;;;5140520;27;37833;-76
2021/11/07 03:48:10;;;;;;;16.35;3.40;;;13.10;99.90;;;;;;5139771;27;38863;-75
2021/11/07 03:50:36;;;;;;;21.85;4.50;;;13.10;99.90;;;;;;5147723;27;38792;-76
2021/11/07 03:53:02;;;;;;;18.90;3.38;;;13.10;99.90;;;;;;5148029;27;37108;-77
2021/11/07 03:55:29;;;;;;;20.00;3.53;;;13.20;99.90;;;;;;5128045;27;38722;-75
2021/11/07 03:57:55;;;;;;;15.80;3.42;;;13.10;99.90;;;;;;5120707;27;38084;-75
2021/11/07 04:00:23;;;;;;;16.42;3.58;;;13.10;99.90;;;;;;5118731;27;39052;-76
2021/11/07 04:02:50;;;;;;;18.60;4.05;;;13.20;99.90;;;;;;5127719;27;36539;-75
2021/11/07 04:05:16;;;;;;;13.57;4.15;;;13.10;99.90;;;;;;5129678;27;40732;-72
2021/11/07 04:07:42;;;;;;;13.43;3.58;;;13.10;99.90;;;;;;5143088;27;38405;-74
2021/11/07 04:10:11;;;;;;;18.65;4.15;;;13.10;99.90;;;;;;5137024;27;38084;-74
2021/11/07 04:12:37;;;;;;;19.65;4.03;;;13.20;99.90;;;;;;5142415;27;38147;-76
2021/11/07 04:15:05;;;;;;;21.83;3.80;;;13.30;99.90;;;;;;5139081;27;37689;-75
2021/11/07 04:17:31;;;;;;;14.93;3.30;;;13.30;99.90;;;;;;5137331;27;47182;-73
2021/11/07 04:19:57;;;;;;;16.08;3.13;;;13.50;99.90;;;;;;5144578;27;36972;-75
2021/11/07 04:22:24;;;;;;;16.88;3.47;;;13.50;99.90;;;;;;5146646;27;36273;-76
2021/11/07 04:24:51;;;;;;;17.15;4.13;;;13.60;99.90;;;;;;5161287;27;38370;-76
2021/11/07 04:27:17;;;;;;;15.57;3.95;;;13.50;99.90;;;;;;5157331;27;39846;-75
2021/11/07 04:29:43;;;;;;;14.63;4.00;;;13.60;99.90;;;;;;5162029;27;38968;-76
2021/11/07 04:32:09;;;;;;;18.98;3.53;;;13.60;99.90;;;;;;5139723;27;35939;-76
2021/11/07 04:34:35;;;;;;;17.73;3.42;;;13.50;99.90;;;;;;5158940;27;38907;-74
2021/11/07 04:37:03;;;;;;;15.43;3.20;;;13.40;99.90;;;;;;5160799;27;38064;-76
2021/11/07 04:39:29;;;;;;;18.45;3.30;;;13.40;99.90;;;;;;5137299;27;48209;-76
2021/11/07 04:41:55;;;;;;;15.98;3.67;;;13.40;99.90;;;;;;5157532;27;37571;-75
2021/11/07 04:44:21;;;;;;;23.63;5.55;;;13.50;99.90;;;;;;5160365;27;40108;-72
2021/11/07 04:46:50;;;;;;;20.02;3.90;;;13.60;99.90;;;;;;5164947;27;39784;-76
2021/11/07 04:49:16;;;;;;;19.07;4.57;;;13.60;99.90;;;;;;5142151;27;38689;-76
2021/11/07 04:51:42;;;;;;;18.17;3.55;;;13.60;99.90;;;;;;5144488;27;38820;-75
2021/11/07 04:54:09;;;;;;;20.95;3.35;;;13.50;99.90;;;;;;5141929;27;40873;-76
2021/11/07 04:56:35;;;;;;;19.10;3.60;;;13.50;99.90;;;;;;5144758;27;38775;-75
2021/11/07 04:59:02;;;;;;;18.85;3.55;;;13.40;99.90;;;;;;5135144;27;38419;-76
2021/11/07 05:01:29;;;;;;;21.75;4.30;;;13.40;99.90;;;;;;5139989;27;38183;-76
2021/11/07 05:03:55;;;;;;;22.05;4.07;;;13.40;99.90;;;;;;5162743;27;38890;-76
2021/11/07 05:06:22;;;;;;;19.58;3.63;;;13.30;99.90;;;;;;5139609;27;38847;-74
2021/11/07 05:08:48;;;;;;;23.90;4.97;;;13.30;99.90;;;;;;5142261;27;38786;-75
2021/11/07 05:11:15;;;;;;;19.90;5.15;;;13.30;99.90;;;;;;5133700;27;38089;-76
2021/11/07 05:13:41;;;;;;;18.75;3.83;;;13.20;99.90;;;;;;5138313;27;40589;-75
2021/11/07 05:16:08;;;;;;;19.47;4.07;;;13.10;99.90;;;;;;5157310;27;38673;-76
2021/11/07 05:18:34;;;;;;;20.67;3.83;;;13.00;99.90;;;;;;5139458;27;37870;-76
2021/11/07 05:21:00;;;;;;;18.35;3.47;;;13.00;99.90;;;;;;5142481;27;37089;-76
2021/11/07 05:23:26;;;;;;;20.88;4.00;;;13.00;99.90;;;;;;5141700;27;47857;-75
2021/11/07 05:25:54;;;;;;;21.07;3.70;;;12.90;99.90;;;;;;5128983;27;38503;-76
2021/11/07 05:28:21;;;;;;;21.35;3.80;;;12.90;99.90;;;;;;5134281;27;38302;-76
2021/11/07 05:30:48;;;;;;;18.23;3.40;;;12.80;99.90;;;;;;5131483;27;36065;-76
2021/11/07 05:33:14;;;;;;;20.37;3.77;;;12.80;99.90;;;;;;5132985;27;38726;-76
2021/11/07 05:35:40;;;;;;;19.30;3.43;;;12.60;99.90;;;;;;5140203;27;38932;-77
2021/11/07 05:38:06;;;;;;;16.87;3.33;;;12.40;99.90;;;;;;5135879;27;38385;-77
2021/11/07 05:40:32;;;;;;;19.40;5.67;;;12.40;99.90;;;;;;5143460;27;37024;-76
2021/11/07 05:42:58;;;;;;;19.90;3.70;;;12.30;99.90;;;;;;5137116;27;39926;-76
2021/11/07 05:45:24;;;;;;;24.23;3.83;;;12.20;99.90;;;;;;5141737;27;38504;-76
2021/11/07 05:47:51;;;;;;;21.07;3.87;;;12.30;99.90;;;;;;5131131;27;38480;-74
2021/11/07 05:50:18;;;;;;;23.47;3.97;;;12.50;99.90;;;;;;5155369;27;37098;-76
2021/11/07 05:52:44;;;;;;;18.60;3.33;;;12.50;99.90;;;;;;5118361;27;37824;-77
2021/11/07 05:55:11;;;;;;;13.20;2.83;;;12.50;99.90;;;;;;5145141;27;39400;-75
2021/11/07 05:57:38;;;;;;;16.30;3.27;;;12.60;99.90;;;;;;5142528;27;39021;-76
2021/11/07 06:00:07;;;;;;;19.47;3.87;;;12.60;99.90;;;;;;5142512;27;36787;-76
2021/11/07 06:02:33;;;;;;;20.20;3.80;;;12.60;99.90;;;;;;5147256;27;47118;-75
2021/11/07 06:04:59;;;;;;;19.53;3.30;;;12.60;99.90;;;;;;5158668;27;39331;-75
2021/11/07 06:07:25;;;;;;;17.20;3.57;;;12.50;99.90;;;;;;5148284;27;40014;-75
2021/11/07 06:09:51;;;;;;;20.50;4.20;;;12.50;99.90;;;;;;5161357;27;37941;-75
2021/11/07 06:12:17;;;;;;;17.77;3.50;;;12.50;99.90;;;;;;5138874;27;40393;-75
2021/11/07 06:14:44;;;;;;;19.50;3.77;;;12.60;99.90;;;;;;5157376;27;38400;-75
2021/11/07 06:17:11;;;;;;;18.07;3.30;;;12.60;99.90;;;;;;5142300;27;37619;-75
2021/11/07 06:19:37;;;;;;;20.80;3.75;;;12.50;99.90;;;;;;5142756;27;39033;-75
2021/11/07 06:22:03;;;;;;;16.67;3.00;;;12.50;99.90;;;;;;5161612;27;39384;-75
2021/11/07 06:24:30;;;;;;;22.03;4.03;;;12.60;99.90;;;;;;5137632;27;37523;-75
2021/11/07 06:26:58;;;;;;;17.10;2.97;;;12.50;99.90;;;;;;5153896;27;38752;-75
2021/11/07 06:29:26;;;;;;;27.37;3.60;;;12.50;99.90;;;;;;5158896;27;37420;-75
2021/11/07 06:31:54;;;;;;;20.57;3.70;;;12.50;99.90;;;;;;5158096;27;38363;-76
2021/11/07 06:34:22;;;;;;;20.23;3.40;;;12.60;99.90;;;;;;5138663;27;40010;-75
2021/11/07 06:36:49;;;;;;;19.77;4.72;;;12.60;99.90;;;;;;5142221;27;39401;-75
2021/11/07 06:39:16;;;;;;;29.60;3.70;;;12.60;99.90;;;;;;5139708;27;37828;-76
2021/11/07 06:41:44;;;;;;;22.10;4.33;;;12.50;99.90;;;;;;5139557;27;38989;-76
2021/11/07 06:44:12;;;;;;;16.03;3.57;;;12.40;99.90;;;;;;5143563;27;38660;-77
2021/11/07 06:46:38;;;;;;;19.67;3.57;;;12.30;99.90;;;;;;5163579;27;39126;-73
2021/11/07 06:49:09;;;;;;;19.60;3.60;;;12.30;99.90;;;;;;5141402;27;36588;-76
2021/11/07 06:51:36;;;;;;;20.07;4.37;;;12.40;99.90;;;;;;5141090;27;40886;-75
2021/11/07 06:54:02;;;;;;;20.10;3.17;;;12.50;99.90;;;;;;5165008;27;38712;-77
2021/11/07 06:56:28;;;;;;;14.57;3.00;;;12.50;99.90;;;;;;5163076;27;37812;-76
2021/11/07 06:58:57;;;;;;;17.30;3.57;;;12.50;99.90;;;;;;5160253;27;37373;-77
2021/11/07 07:01:24;;;;;;;21.03;3.53;;;12.40;99.90;;;;;;5136605;27;38662;-76
2021/11/07 07:03:50;;;;;;;17.93;3.63;;;12.50;99.90;;;;;;5156988;27;36630;-77
2021/11/07 07:06:17;;;;;;;18.90;3.90;;;12.40;99.90;;;;;;5151883;27;38571;-75
2021/11/07 07:08:47;;;;;;;23.07;3.70;;;12.30;99.90;;;;;;5138434;27;39086;-76
2021/11/07 07:11:20;;;;;;;15.17;2.87;;;12.30;99.90;;;;;;5132974;27;39621;-77
2021/11/07 07:13:54;;;;;;;16.80;3.30;;;12.20;99.90;;;;;;5139435;27;38775;-75
2021/11/07 07:16:31;;;;;;;20.47;3.43;;;12.20;99.90;;;;;;5157515;27;38300;-74
2021/11/07 07:27:51;;;;;;;17.53;3.27;;;12.60;99.90;;;;;;5155887;27;38242;-76
2021/11/07 07:30:31;;;;;;;25.35;3.35;;;12.60;99.90;;;;;;5157560;27;38055;-74
2021/11/07 07:33:27;;;;;;;17.10;3.30;;;12.60;99.90;;;;;;5164572;27;38676;-76
2021/11/07 07:35:56;;;;;;;19.38;3.60;;;12.60;99.90;;;;;;5162041;27;48501;-75
2021/11/07 07:38:24;;;;;;;25.20;3.25;;;12.60;99.90;;;;;;5140552;27;38081;-76
2021/11/07 07:40:50;;;;;;;21.75;3.65;;;12.70;99.90;;;;;;5139912;27;36347;-76
2021/11/07 07:43:18;;;;;;;19.50;3.67;;;12.70;99.90;;;;;;5160450;27;39511;-77
2021/11/07 07:45:44;;;;;;;18.65;3.88;;;12.70;99.90;;;;;;5167424;27;39417;-75
2021/11/07 07:48:10;;;;;;;18.52;3.30;;;12.70;99.90;;;;;;5165308;27;38724;-76
2021/11/07 07:50:39;;;;;;;15.30;2.95;;;12.70;99.90;;;;;;5164403;27;37144;-76
2021/11/07 07:53:06;;;;;;;21.67;4.13;;;12.80;99.90;;;;;;5163302;27;38973;-76
2021/11/07 07:55:33;;;;;;;28.05;3.50;;;12.80;99.90;;;;;;5158043;27;38401;-76
2021/11/07 07:58:00;;;;;;;19.90;3.28;;;12.90;99.90;;;;;;5165118;27;38835;-76
2021/11/07 08:00:27;;;;;;;21.27;4.38;;;12.80;99.90;;;;;;5132210;27;33669;-76
2021/11/07 08:02:53;;;;;;;20.27;3.17;;;12.80;99.90;;;;;;5145907;27;37712;-75
2021/11/07 08:05:20;;;;;;;18.77;3.80;;;12.80;99.90;;;;;;5139048;27;37502;-74
2021/11/07 08:07:46;;;;;;;19.35;3.67;;;12.80;99.90;;;;;;5146635;27;40159;-76
2021/11/07 08:10:13;;;;;;;21.85;3.63;;;12.80;99.90;;;;;;5162590;27;37911;-76
2021/11/07 08:12:40;;;;;;;19.58;3.70;;;12.80;99.90;;;;;;5163998;27;38602;-75
2021/11/07 08:15:07;;;;;;;23.17;3.58;;;12.70;99.90;;;;;;5140137;27;38570;-75
2021/11/07 08:17:34;;;;;;;20.83;3.00;;;12.70;99.90;;;;;;5156430;27;37743;-77
2021/11/07 08:20:05;;;;;;;18.85;3.72;;;12.70;99.90;;;;;;5160950;27;37220;-77
2021/11/07 08:22:31;;;;;;;18.58;4.22;;;12.80;99.90;;;;;;5150304;27;48519;-76
2021/11/07 08:24:58;;;;;;;19.33;2.83;;;12.80;99.90;;;;;;5135814;27;40266;-75
2021/11/07 08:27:24;;;;;;;19.58;3.63;;;12.90;99.90;;;;;;5157932;27;38980;-75
2021/11/07 08:29:54;;;;;;;21.98;3.65;;;12.90;99.90;;;;;;5143981;27;38368;-75
2021/11/07 08:32:21;;;;;;;19.63;3.40;;;12.90;99.90;;;;;;5138849;27;38852;-76
2021/11/07 08:34:47;;;;;;;15.90;3.85;;;12.90;99.90;;;;;;5137446;27;38754;-76
2021/11/07 08:37:15;;;;;;;17.65;3.30;;;12.90;99.90;;;;;;5160751;27;38845;-74
2021/11/07 08:39:48;;;;;;;23.38;4.22;;;13.00;99.90;;;;;;5121436;27;37549;-74
2021/11/07 08:42:30;;;;;;;20.80;3.78;;;13.00;99.90;;;;;;5142053;27;39320;-75
2021/11/07 09:01:41;;;;;;;20.23;3.65;;;12.90;99.90;;;;;;5150926;27;37810;-75
2021/11/07 09:04:37;;;;;;;18.17;3.65;;;13.00;99.90;;;;;;5114569;27;38034;-74
2021/11/07 09:07:16;;;;;;;20.00;3.67;;;13.00;99.90;;;;;;5119410;27;37597;-74
2021/11/07 09:09:45;;;;;;;19.45;3.53;;;13.10;99.90;;;;;;5137626;27;20480;-74
2021/11/07 09:12:12;;;;;;;18.17;3.08;;;13.20;99.90;;;;;;5119050;27;36261;-74
2021/11/07 09:14:40;;;;;;;23.67;3.47;;;13.30;99.90;;;;;;5126684;27;38016;-75
2021/11/07 09:17:13;;;;;;;22.02;3.75;;;13.50;99.90;;;;;;5143486;27;38357;-74
2021/11/07 09:19:42;;;;;;;22.15;3.55;;;13.50;99.90;;;;;;5125992;27;37158;-74
2021/11/07 09:22:31;;;;;;;19.27;3.45;;;13.40;99.90;;;;;;5136277;27;37611;-73
2021/11/07 09:25:01;;;;;;;17.95;3.85;;;13.50;99.90;;;;;;5119092;27;38023;-74
2021/11/07 09:27:47;;;;;;;20.77;3.33;;;13.50;99.90;;;;;;5114033;27;37391;-75
2021/11/07 09:30:22;;;;;;;19.40;4.13;;;13.40;99.90;;;;;;5122785;27;38158;-75
2021/11/07 09:33:09;;;;;;;19.95;4.03;;;13.30;99.90;;;;;;5152640;27;38042;-75
2021/11/07 09:40:37;;;;;;;19.83;3.70;;;13.00;99.90;;;;;;5154216;27;38393;-74
2021/11/07 09:48:20;;;;;;;18.10;3.53;;;13.30;99.90;;;;;;5157091;27;38967;-76
2021/11/07 09:50:47;;;;;;;16.92;2.90;;;13.40;99.90;;;;;;5135853;27;40172;-73
2021/11/07 09:53:18;;;;;;;15.85;3.55;;;13.30;99.90;;;;;;5142366;27;36151;-76
2021/11/07 09:55:46;;;;;;;24.17;4.75;;;13.20;99.90;;;;;;5135134;27;39010;-73
2021/11/07 09:58:14;;;;;;;21.00;3.97;;;13.10;99.90;;;;;;5157979;27;38443;-73
2021/11/07 10:00:46;;;;;;;24.00;3.35;;;13.10;99.90;;;;;;5129711;27;36940;-74
2021/11/07 10:03:16;;;;;;;19.27;3.72;;;13.00;99.90;;;;;;5140085;27;38254;-74
2021/11/07 10:05:45;;;;;;;17.63;3.38;;;13.00;99.90;;;;;;5134036;27;38697;-73
2021/11/07 10:08:13;;;;;;;14.73;2.95;;;13.00;99.90;;;;;;5124346;27;37413;-74
2021/11/07 10:11:04;;;;;;;17.83;3.03;;;13.10;99.90;;;;;;5132787;27;38169;-74
2021/11/07 10:13:28;;;;;;;20.50;3.92;;;13.10;99.90;;;;;;5145466;27;49790;-74
2021/11/07 10:16:13;;;;;;;17.30;3.05;;;13.00;99.90;;;;;;5128519;27;37782;-75
2021/11/07 10:21:24;;;;;;;13.57;3.15;;;13.10;99.90;;;;;;5147062;27;37946;-74
2021/11/07 10:24:14;;;;;;;21.35;3.50;;;13.20;99.90;;;;;;5144353;27;36545;-73
2021/11/07 10:26:44;;;;;;;16.00;3.17;;;13.40;99.90;;;;;;5135830;27;48202;-73
2021/11/07 10:29:31;;;;;;;22.67;3.88;;;13.60;99.90;;;;;;5132674;27;37405;-75
2021/11/07 10:32:02;;;;;;;20.38;3.30;;;13.70;99.90;;;;;;5144634;27;38251;-74
2021/11/07 10:45:25;;;;;;;20.98;4.10;;;13.20;99.90;;;;;;5141455;27;37788;-74
2021/11/07 10:53:26;;;;;;;18.45;3.45;;;13.50;99.90;;;;;;5137918;27;36885;-72
2021/11/07 10:55:56;;;;;;;25.45;3.58;;;13.30;99.90;;;;;;5140360;27;36950;-72
2021/11/07 10:58:35;;;;;;;23.08;3.78;;;13.10;99.90;;;;;;5136711;27;38925;-74
2021/11/07 11:01:05;;;;;;;20.33;3.63;;;13.10;99.90;;;;;;5138938;27;39366;-73
2021/11/07 11:03:31;;;;;;;21.65;3.72;;;13.10;99.90;;;;;;5139879;27;48044;-73
2021/11/07 11:06:33;;;;;;;19.58;3.90;;;13.30;99.90;;;;;;5139428;27;37062;-74
2021/11/07 11:09:02;;;;;;;19.20;4.03;;;13.30;99.90;;;;;;5141766;27;48497;-73
2021/11/07 11:11:39;;;;;;;21.95;3.88;;;13.30;99.90;;;;;;5144021;27;48963;-74
2021/11/07 11:14:29;;;;;;;21.05;4.05;;;13.40;99.90;;;;;;5123660;27;37372;-74
2021/11/07 11:20:03;;;;;;;25.55;4.47;;;13.20;99.90;;;;;;5142769;27;49286;-74
2021/11/07 11:22:50;;;;;;;19.38;3.55;;;13.10;99.90;;;;;;5151929;27;47045;-74
2021/11/07 11:25:36;;;;;;;15.32;3.10;;;13.10;99.90;;;;;;5144908;27;37282;-73
2021/11/07 11:35:39;;;;;;;17.20;4.25;;;13.20;99.90;;;;;;5147109;27;38511;-73
2021/11/07 11:43:26;;;;;;;18.52;3.38;;;13.50;99.90;;;;;;5129429;27;39269;-74
2021/11/07 11:46:01;;;;;;;24.75;3.50;;;13.60;99.90;;;;;;5131729;27;37992;-74
2021/11/07 11:51:25;;;;;;;24.40;3.95;;;14.00;99.90;;;;;;5144727;27;39107;-74
2021/11/07 12:03:32;;;;;;;22.08;3.67;;;13.80;99.90;;;;;;5140019;27;38802;-76
2021/11/07 12:06:09;;;;;;;27.02;4.18;;;13.60;99.90;;;;;;5138899;27;38563;-75
2021/11/07 12:09:23;;;;;;;21.27;3.72;;;13.50;99.90;;;;;;5142160;27;48859;-75
2021/11/07 12:11:27;;;;;;;21.25;4.70;;;13.50;99.90;;;;;;5128084;27;37372;-76
2021/11/07 12:14:09;;;;;;;23.83;4.45;;;13.70;99.90;;;;;;5136266;27;37546;-74
2021/11/07 12:16:48;;;;;;;29.23;4.68;;;13.70;99.90;;;;;;5141312;27;49052;-75
2021/11/07 12:19:17;;;;;;;17.50;4.05;;;13.80;99.90;;;;;;5141496;27;37146;-75
2021/11/07 12:21:53;;;;;;;22.20;3.88;;;13.90;99.90;;;;;;5134157;27;36047;-75
2021/11/07 12:24:23;;;;;;;17.00;4.22;;;14.00;99.90;;;;;;5135466;27;42297;-73
2021/11/07 12:26:50;;;;;;;21.85;4.15;;;14.10;99.90;;;;;;5154731;27;38517;-74
2021/11/07 12:29:38;;;;;;;22.92;4.28;;;14.30;99.90;;;;;;5136234;27;38501;-73
2021/11/07 12:32:06;;;;;;;22.42;4.75;;;14.20;99.90;;;;;;5167102;27;37080;-74
2021/11/07 12:34:58;;;;;;;22.92;5.07;;;14.10;99.90;;;;;;5161445;27;38651;-76
2021/11/07 12:40:45;;;;;;;23.58;4.20;;;13.80;99.90;;;;;;5161824;27;38674;-73
2021/11/07 12:43:44;;;;;;;34.08;3.83;;;14.00;99.90;;;;;;5149262;27;37049;-73
2021/11/07 12:49:16;;;;;;;19.35;3.08;;;13.90;99.90;;;;;;5163734;27;39285;-72
2021/11/07 12:51:52;;;;;;;18.25;3.95;;;13.90;99.90;;;;;;5138468;27;48299;-74
2021/11/07 12:54:32;;;;;;;18.83;4.22;;;14.00;99.90;;;;;;5157511;27;36980;-74
2021/11/07 12:57:08;;;;;;;15.30;4.22;;;13.90;99.90;;;;;;5161851;27;39446;-74
2021/11/07 12:59:55;;;;;;;21.75;3.58;;;13.90;99.90;;;;;;5159533;27;48053;-74
2021/11/07 13:02:29;;;;;;;26.17;4.57;;;13.80;99.90;;;;;;5150441;27;39137;-74
2021/11/07 13:05:18;;;;;;;26.42;4.15;;;13.70;99.90;;;;;;5131099;27;36087;-73
2021/11/07 13:07:54;;;;;;;31.42;5.30;;;13.80;99.90;;;;;;5147402;27;49078;-74
2021/11/07 13:10:32;;;;;;;21.50;4.57;;;13.80;99.90;;;;;;5154010;27;38423;-74
2021/11/07 13:13:05;;;;;;;21.98;4.00;;;13.70;99.90;;;;;;5150760;27;38795;-73
2021/11/07 13:25:56;;;;;;;23.02;4.60;;;13.50;99.90;;;;;;5147559;27;37152;-75
2021/11/07 13:31:40;;;;;;;18.65;3.72;;;13.50;99.90;;;;;;5163951;27;38469;-76
2021/11/07 13:34:06;;;;;;;18.25;3.17;;;13.50;99.90;;;;;;5146516;27;48706;-72
2021/11/07 13:36:40;;;;;;;27.67;4.38;;;13.40;99.90;;;;;;5128231;27;47034;-74
2021/11/07 13:39:07;;;;;;;21.95;5.18;;;13.40;99.90;;;;;;5109460;27;37866;-74
2021/11/07 13:41:34;;;;;;;27.52;4.10;;;13.50;99.90;;;;;;5155414;27;37497;-76
2021/11/07 13:44:11;;;;;;;32.65;4.93;;;13.50;99.90;;;;;;5129512;27;38070;-76
2021/11/07 13:46:49;;;;;;;21.10;3.65;;;13.60;99.90;;;;;;5133936;27;48710;-74
2021/11/07 13:49:16;;;;;;;23.25;4.60;;;13.50;99.90;;;;;;5132024;27;38807;-73
2021/11/07 13:52:01;;;;;;;29.50;4.63;;;13.50;99.90;;;;;;5132427;27;37414;-74
2021/11/07 13:54:28;;;;;;;21.58;4.78;;;13.40;99.90;;;;;;5112329;27;46900;-75
2021/11/07 13:56:55;;;;;;;16.35;4.00;;;13.20;99.90;;;;;;5122296;27;37588;-75
2021/11/07 13:59:26;;;;;;;21.55;3.95;;;13.00;99.90;;;;;;5103488;27;40305;-74
2021/11/07 14:01:53;;;;;;;25.92;5.28;;;13.00;99.90;;;;;;5149801;27;39307;-74
2021/11/07 14:04:19;;;;;;;28.88;4.75;;;12.90;99.90;;;;;;5143217;27;39004;-74
2021/11/07 14:06:45;;;;;;;22.20;4.57;;;12.90;99.90;;;;;;5140219;27;38596;-74
2021/11/07 14:09:11;;;;;;;24.17;5.03;;;12.90;99.90;;;;;;5134595;27;38796;-75
2021/11/07 14:11:39;;;;;;;24.15;3.90;;;12.90;99.90;;;;;;5134945;27;40071;-72
2021/11/07 14:14:09;;;;;;;21.63;4.68;;;12.90;99.90;;;;;;5134485;27;39124;-74
2021/11/07 14:16:49;;;;;;;31.52;5.22;;;12.90;99.90;;;;;;5134537;27;37390;-73
2021/11/07 14:19:16;;;;;;;24.92;3.75;;;13.00;99.90;;;;;;5136936;27;39214;-74
2021/11/07 14:21:46;;;;;;;25.20;4.82;;;13.00;99.90;;;;;;5144550;27;38941;-74
2021/11/07 14:24:28;;;;;;;24.80;4.88;;;13.00;99.90;;;;;;5131482;27;38744;-74
2021/11/07 14:27:03;;;;;;;29.60;4.93;;;13.00;99.90;;;;;;5128709;27;37657;-75
2021/11/07 14:29:34;;;;;;;26.77;4.45;;;12.90;99.90;;;;;;5140792;27;48471;-74
2021/11/07 14:32:23;;;;;;;23.65;4.25;;;12.70;99.90;;;;;;5140753;27;38668;-74
2021/11/07 14:35:42;;;;;;;26.15;4.55;;;12.30;99.90;;;;;;5121666;27;45486;-75
2021/11/07 14:40:20;;;;;;;24.25;3.72;;;11.70;99.90;;;;;;5142229;27;39923;-77
2021/11/07 14:43:07;;;;;;;31.70;5.43;;;11.80;99.90;;;;;;5107530;27;37116;-74
2021/11/07 14:57:05;;;;;;;29.20;4.87;;;11.90;99.90;;;;;;5154628;27;48994;-75
2021/11/07 15:04:58;;;;;;;34.25;5.57;;;11.80;99.90;;;;;;5164652;27;38505;-75
2021/11/07 15:07:34;;;;;;;25.08;5.38;;;11.80;99.90;;;;;;5167319;27;39170;-74
2021/11/07 15:10:21;;;;;;;31.50;5.03;;;11.70;99.90;;;;;;5170840;27;37018;-74
2021/11/07 15:13:09;;;;;;;26.97;4.90;;;11.70;99.90;;;;;;5143191;27;45619;-74
2021/11/07 15:15:53;;;;;;;24.83;4.27;;;11.70;99.90;;;;;;5166065;27;48491;-75
2021/11/07 15:21:00;;;;;;;35.50;6.53;;;11.60;99.90;;;;;;5155047;27;39042;-75
2021/11/07 15:23:37;;;;;;;24.03;3.83;;;11.60;99.90;;;;;;5133618;27;38021;-75